sensor_id;sensor_type;location;lat;lon;timestamp;pressure;altitude;pressure_sealevel;temperature;humidity
50650;BME280;36621;60.058;30.346;2023-02-26T00:05:21;99806.69;;;-2.29;61.79
50650;BME280;36621;60.058;30.346;2023-02-26T00:12:54;99820.31;;;-2.50;62.70
50650;BME280;36621;60.058;30.346;2023-02-26T00:20:26;99823.97;;;-2.18;61.84
50650;BME280;36621;60.058;30.346;2023-02-26T00:27:59;99814.88;;;-2.10;61.22
50650;BME280;36621;60.058;30.346;2023-02-26T00:35:32;99814.22;;;-1.99;61.01
50650;BME280;36621;60.058;30.346;2023-02-26T00:43:08;99829.94;;;-2.22;61.65
50650;BME280;36621;60.058;30.346;2023-02-26T00:50:50;99825.00;;;-2.25;61.24
50650;BME280;36621;60.058;30.346;2023-02-26T00:58:25;99807.34;;;-2.33;60.99
50650;BME280;36621;60.058;30.346;2023-02-26T01:05:57;99840.22;;;-2.19;61.69
50650;BME280;36621;60.058;30.346;2023-02-26T01:13:30;99824.97;;;-2.12;61.77
50650;BME280;36621;60.058;30.346;2023-02-26T01:21:04;99838.56;;;-2.14;61.33
50650;BME280;36621;60.058;30.346;2023-02-26T01:28:37;99858.94;;;-2.19;61.62
50650;BME280;36621;60.058;30.346;2023-02-26T01:36:14;99847.00;;;-2.23;61.60
50650;BME280;36621;60.058;30.346;2023-02-26T01:43:59;99842.53;;;-2.43;63.33
50650;BME280;36621;60.058;30.346;2023-02-26T01:51:47;99854.19;;;-2.24;62.01
50650;BME280;36621;60.058;30.346;2023-02-26T01:59:20;99848.25;;;-2.26;61.54
50650;BME280;36621;60.058;30.346;2023-02-26T02:06:54;99832.72;;;-2.04;61.59
50650;BME280;36621;60.058;30.346;2023-02-26T02:14:32;99848.03;;;-2.24;62.71
50650;BME280;36621;60.058;30.346;2023-02-26T02:22:26;99826.03;;;-2.27;62.54
50650;BME280;36621;60.058;30.346;2023-02-26T02:30:24;99819.91;;;-2.47;63.08
50650;BME280;36621;60.058;30.346;2023-02-26T02:38:04;99833.06;;;-2.39;63.18
50650;BME280;36621;60.058;30.346;2023-02-26T02:45:42;99828.94;;;-2.35;62.98
50650;BME280;36621;60.058;30.346;2023-02-26T02:53:19;99821.06;;;-2.23;62.51
50650;BME280;36621;60.058;30.346;2023-02-26T03:00:55;99823.00;;;-2.37;62.04
50650;BME280;36621;60.058;30.346;2023-02-26T03:08:33;99817.72;;;-2.77;64.13
50650;BME280;36621;60.058;30.346;2023-02-26T03:16:17;99846.44;;;-2.39;63.16
50650;BME280;36621;60.058;30.346;2023-02-26T03:23:59;99838.22;;;-2.44;63.58
50650;BME280;36621;60.058;30.346;2023-02-26T03:31:36;99855.03;;;-2.30;63.77
50650;BME280;36621;60.058;30.346;2023-02-26T03:39:15;99850.16;;;-2.47;63.85
50650;BME280;36621;60.058;30.346;2023-02-26T03:46:55;99861.88;;;-2.41;63.05
50650;BME280;36621;60.058;30.346;2023-02-26T03:54:44;99774.94;;;-2.70;63.48
50650;BME280;36621;60.058;30.346;2023-02-26T04:02:46;99810.66;;;-2.45;62.80
50650;BME280;36621;60.058;30.346;2023-02-26T04:10:30;99859.56;;;-2.31;62.70
50650;BME280;36621;60.058;30.346;2023-02-26T04:18:03;99854.63;;;-2.27;62.06
50650;BME280;36621;60.058;30.346;2023-02-26T04:25:37;99852.22;;;-2.62;62.36
50650;BME280;36621;60.058;30.346;2023-02-26T04:33:09;99840.31;;;-2.59;61.52
50650;BME280;36621;60.058;30.346;2023-02-26T04:40:42;99837.81;;;-2.41;61.21
50650;BME280;36621;60.058;30.346;2023-02-26T04:48:18;99868.69;;;-2.58;61.88
50650;BME280;36621;60.058;30.346;2023-02-26T04:55:50;99843.97;;;-2.34;61.65
50650;BME280;36621;60.058;30.346;2023-02-26T05:03:22;99861.69;;;-2.59;63.06
50650;BME280;36621;60.058;30.346;2023-02-26T05:10:55;99877.28;;;-2.43;62.12
50650;BME280;36621;60.058;30.346;2023-02-26T05:18:28;99878.50;;;-2.46;61.61
50650;BME280;36621;60.058;30.346;2023-02-26T05:26:02;99855.72;;;-2.55;61.99
50650;BME280;36621;60.058;30.346;2023-02-26T05:33:34;99858.13;;;-2.40;62.39
50650;BME280;36621;60.058;30.346;2023-02-26T05:41:09;99840.47;;;-2.48;62.78
50650;BME280;36621;60.058;30.346;2023-02-26T05:48:44;99859.78;;;-2.46;62.44
50650;BME280;36621;60.058;30.346;2023-02-26T05:56:17;99870.50;;;-2.59;62.71
50650;BME280;36621;60.058;30.346;2023-02-26T06:03:48;99876.88;;;-2.53;61.40
50650;BME280;36621;60.058;30.346;2023-02-26T06:11:31;99801.31;;;-3.07;62.05
50650;BME280;36621;60.058;30.346;2023-02-26T06:19:13;99900.72;;;-2.38;61.90
50650;BME280;36621;60.058;30.346;2023-02-26T06:26:46;99874.41;;;-2.48;61.98
50650;BME280;36621;60.058;30.346;2023-02-26T06:34:18;99948.44;;;-2.55;62.19
50650;BME280;36621;60.058;30.346;2023-02-26T06:41:51;99907.31;;;-2.54;62.20
50650;BME280;36621;60.058;30.346;2023-02-26T06:49:23;99892.91;;;-2.93;62.70
50650;BME280;36621;60.058;30.346;2023-02-26T06:56:58;99912.66;;;-2.61;62.12
50650;BME280;36621;60.058;30.346;2023-02-26T07:04:32;99901.78;;;-2.80;62.89
50650;BME280;36621;60.058;30.346;2023-02-26T07:12:06;99900.75;;;-2.65;62.39
50650;BME280;36621;60.058;30.346;2023-02-26T07:19:40;99871.34;;;-2.58;63.38
50650;BME280;36621;60.058;30.346;2023-02-26T07:27:13;99920.47;;;-2.66;63.45
50650;BME280;36621;60.058;30.346;2023-02-26T07:34:44;99907.13;;;-2.59;63.69
50650;BME280;36621;60.058;30.346;2023-02-26T07:42:20;99918.59;;;-2.39;62.49
50650;BME280;36621;60.058;30.346;2023-02-26T07:49:52;99862.09;;;-2.89;63.22
50650;BME280;36621;60.058;30.346;2023-02-26T07:57:24;99904.47;;;-2.73;63.08
50650;BME280;36621;60.058;30.346;2023-02-26T08:05:02;99902.16;;;-2.89;63.24
50650;BME280;36621;60.058;30.346;2023-02-26T08:12:35;99890.66;;;-2.63;62.20
50650;BME280;36621;60.058;30.346;2023-02-26T08:20:09;99944.53;;;-2.46;61.11
50650;BME280;36621;60.058;30.346;2023-02-26T08:27:42;99948.03;;;-2.66;61.59
50650;BME280;36621;60.058;30.346;2023-02-26T08:35:14;99985.03;;;-2.63;61.75
50650;BME280;36621;60.058;30.346;2023-02-26T08:42:50;99974.72;;;-2.79;61.84
50650;BME280;36621;60.058;30.346;2023-02-26T08:50:22;99961.59;;;-2.67;60.63
50650;BME280;36621;60.058;30.346;2023-02-26T08:57:55;99979.25;;;-2.66;60.26
50650;BME280;36621;60.058;30.346;2023-02-26T09:05:27;99950.91;;;-2.60;59.65
50650;BME280;36621;60.058;30.346;2023-02-26T09:12:59;99951.75;;;-2.47;59.19
50650;BME280;36621;60.058;30.346;2023-02-26T09:20:32;99959.97;;;-2.48;58.90
50650;BME280;36621;60.058;30.346;2023-02-26T09:28:05;99963.03;;;-2.38;58.37
50650;BME280;36621;60.058;30.346;2023-02-26T09:35:37;99949.03;;;-2.33;57.07
50650;BME280;36621;60.058;30.346;2023-02-26T09:43:31;99993.25;;;-2.17;56.70
50650;BME280;36621;60.058;30.346;2023-02-26T09:51:08;99995.75;;;-2.29;57.15
50650;BME280;36621;60.058;30.346;2023-02-26T09:58:43;99998.00;;;-2.19;57.12
50650;BME280;36621;60.058;30.346;2023-02-26T10:06:22;100032.16;;;-1.95;56.48
50650;BME280;36621;60.058;30.346;2023-02-26T10:13:58;99983.59;;;-2.32;57.36
50650;BME280;36621;60.058;30.346;2023-02-26T10:21:37;100006.44;;;-2.36;57.30
50650;BME280;36621;60.058;30.346;2023-02-26T10:29:18;100065.84;;;-2.60;59.58
50650;BME280;36621;60.058;30.346;2023-02-26T10:36:59;100022.88;;;-2.66;62.67
50650;BME280;36621;60.058;30.346;2023-02-26T10:44:37;100004.75;;;-2.77;61.69
50650;BME280;36621;60.058;30.346;2023-02-26T10:52:14;100061.97;;;-2.38;59.63
50650;BME280;36621;60.058;30.346;2023-02-26T10:59:49;100073.69;;;-2.39;62.18
50650;BME280;36621;60.058;30.346;2023-02-26T11:07:24;100023.28;;;-2.55;63.07
50650;BME280;36621;60.058;30.346;2023-02-26T11:15:01;100058.25;;;-2.43;63.65
50650;BME280;36621;60.058;30.346;2023-02-26T11:22:34;100050.44;;;-2.45;63.60
50650;BME280;36621;60.058;30.346;2023-02-26T11:30:15;100041.41;;;-2.31;63.33
50650;BME280;36621;60.058;30.346;2023-02-26T11:37:52;100078.25;;;-2.19;62.89
50650;BME280;36621;60.058;30.346;2023-02-26T11:45:26;100082.53;;;-2.32;65.35
50650;BME280;36621;60.058;30.346;2023-02-26T11:53:04;100096.56;;;-2.03;63.53
50650;BME280;36621;60.058;30.346;2023-02-26T12:00:40;100079.66;;;-1.97;64.05
50650;BME280;36621;60.058;30.346;2023-02-26T12:08:17;100095.94;;;-1.98;62.52
50650;BME280;36621;60.058;30.346;2023-02-26T12:15:54;100117.91;;;-2.36;63.55
50650;BME280;36621;60.058;30.346;2023-02-26T12:39:48;100166.13;;;-2.03;62.44
50650;BME280;36621;60.058;30.346;2023-02-26T12:47:33;100172.88;;;-2.07;61.39
50650;BME280;36621;60.058;30.346;2023-02-26T12:55:21;100179.06;;;-2.00;61.30
50650;BME280;36621;60.058;30.346;2023-02-26T13:03:20;100230.72;;;-2.06;60.24
50650;BME280;36621;60.058;30.346;2023-02-26T13:11:07;100180.63;;;-2.39;61.14
50650;BME280;36621;60.058;30.346;2023-02-26T13:18:48;100201.56;;;-2.49;61.14
50650;BME280;36621;60.058;30.346;2023-02-26T13:26:25;100236.00;;;-2.26;60.54
50650;BME280;36621;60.058;30.346;2023-02-26T13:34:00;100240.09;;;-2.37;60.18
50650;BME280;36621;60.058;30.346;2023-02-26T13:41:38;100267.91;;;-2.24;60.20
50650;BME280;36621;60.058;30.346;2023-02-26T13:49:19;100266.66;;;-2.29;60.51
50650;BME280;36621;60.058;30.346;2023-02-26T13:57:06;100274.38;;;-2.47;61.78
50650;BME280;36621;60.058;30.346;2023-02-26T14:04:49;100294.00;;;-2.33;61.78
50650;BME280;36621;60.058;30.346;2023-02-26T14:20:32;100329.56;;;-2.68;63.66
50650;BME280;36621;60.058;30.346;2023-02-26T14:28:44;100323.09;;;-2.52;63.16
50650;BME280;36621;60.058;30.346;2023-02-26T14:36:21;100356.34;;;-2.61;63.39
50650;BME280;36621;60.058;30.346;2023-02-26T14:43:59;100343.94;;;-2.69;63.76
50650;BME280;36621;60.058;30.346;2023-02-26T14:51:40;100402.31;;;-2.72;64.59
50650;BME280;36621;60.058;30.346;2023-02-26T14:59:32;100420.06;;;-2.86;64.01
50650;BME280;36621;60.058;30.346;2023-02-26T15:07:25;100407.28;;;-2.91;64.45
50650;BME280;36621;60.058;30.346;2023-02-26T15:15:17;100413.72;;;-2.85;64.55
50650;BME280;36621;60.058;30.346;2023-02-26T15:23:10;100412.06;;;-2.86;63.93
50650;BME280;36621;60.058;30.346;2023-02-26T15:30:47;100461.69;;;-2.99;64.45
50650;BME280;36621;60.058;30.346;2023-02-26T15:38:20;100447.75;;;-2.94;64.81
50650;BME280;36621;60.058;30.346;2023-02-26T15:45:56;100490.69;;;-2.95;64.68
50650;BME280;36621;60.058;30.346;2023-02-26T15:53:31;100468.66;;;-2.98;64.16
50650;BME280;36621;60.058;30.346;2023-02-26T16:01:14;100485.53;;;-2.97;63.44
50650;BME280;36621;60.058;30.346;2023-02-26T16:08:48;100507.94;;;-2.98;62.78
50650;BME280;36621;60.058;30.346;2023-02-26T16:16:27;100515.69;;;-3.03;62.54
50650;BME280;36621;60.058;30.346;2023-02-26T16:24:00;100499.47;;;-3.02;62.56
50650;BME280;36621;60.058;30.346;2023-02-26T16:31:35;100523.38;;;-2.93;62.45
50650;BME280;36621;60.058;30.346;2023-02-26T16:39:20;100551.28;;;-2.81;61.88
50650;BME280;36621;60.058;30.346;2023-02-26T16:46:55;100551.91;;;-2.79;61.56
50650;BME280;36621;60.058;30.346;2023-02-26T16:54:31;100579.78;;;-2.88;62.10
50650;BME280;36621;60.058;30.346;2023-02-26T17:02:11;100596.19;;;-2.91;62.05
50650;BME280;36621;60.058;30.346;2023-02-26T17:09:48;100590.31;;;-3.02;62.66
50650;BME280;36621;60.058;30.346;2023-02-26T17:17:22;100596.00;;;-3.05;62.49
50650;BME280;36621;60.058;30.346;2023-02-26T17:24:55;100626.28;;;-2.83;61.07
50650;BME280;36621;60.058;30.346;2023-02-26T17:32:33;100616.78;;;-2.85;61.21
50650;BME280;36621;60.058;30.346;2023-02-26T17:40:16;100627.19;;;-2.75;60.69
50650;BME280;36621;60.058;30.346;2023-02-26T17:47:51;100622.66;;;-2.75;60.62
50650;BME280;36621;60.058;30.346;2023-02-26T17:55:24;100642.22;;;-2.74;60.76
50650;BME280;36621;60.058;30.346;2023-02-26T18:02:59;100609.31;;;-2.75;60.25
50650;BME280;36621;60.058;30.346;2023-02-26T18:10:32;100656.28;;;-2.29;60.33
50650;BME280;36621;60.058;30.346;2023-02-26T18:18:09;100680.56;;;-2.46;59.45
50650;BME280;36621;60.058;30.346;2023-02-26T18:25:43;100685.28;;;-2.48;59.38
50650;BME280;36621;60.058;30.346;2023-02-26T18:33:17;100695.13;;;-2.70;58.95
50650;BME280;36621;60.058;30.346;2023-02-26T18:40:49;100678.22;;;-2.70;58.76
50650;BME280;36621;60.058;30.346;2023-02-26T18:48:23;100698.56;;;-2.54;58.45
50650;BME280;36621;60.058;30.346;2023-02-26T18:55:55;100708.47;;;-2.70;58.34
50650;BME280;36621;60.058;30.346;2023-02-26T19:03:29;100708.94;;;-2.81;57.62
50650;BME280;36621;60.058;30.346;2023-02-26T19:11:01;100748.38;;;-2.53;57.94
50650;BME280;36621;60.058;30.346;2023-02-26T19:18:36;100758.31;;;-2.62;57.00
50650;BME280;36621;60.058;30.346;2023-02-26T19:26:08;100771.03;;;-2.79;57.67
50650;BME280;36621;60.058;30.346;2023-02-26T19:33:41;100771.16;;;-2.87;57.57
50650;BME280;36621;60.058;30.346;2023-02-26T19:41:13;100747.50;;;-3.14;57.37
50650;BME280;36621;60.058;30.346;2023-02-26T19:48:46;100801.81;;;-2.83;57.18
50650;BME280;36621;60.058;30.346;2023-02-26T19:56:18;100810.53;;;-3.04;57.07
50650;BME280;36621;60.058;30.346;2023-02-26T20:03:56;100819.31;;;-2.95;57.20
50650;BME280;36621;60.058;30.346;2023-02-26T20:11:30;100811.50;;;-2.82;56.46
50650;BME280;36621;60.058;30.346;2023-02-26T20:19:06;100806.78;;;-2.95;56.68
50650;BME280;36621;60.058;30.346;2023-02-26T20:26:39;100844.72;;;-3.00;56.98
50650;BME280;36621;60.058;30.346;2023-02-26T20:34:12;100840.00;;;-3.12;56.84
50650;BME280;36621;60.058;30.346;2023-02-26T20:41:43;100866.72;;;-2.98;56.78
50650;BME280;36621;60.058;30.346;2023-02-26T20:49:16;100880.88;;;-2.89;56.71
50650;BME280;36621;60.058;30.346;2023-02-26T20:56:48;100909.47;;;-2.98;56.58
50650;BME280;36621;60.058;30.346;2023-02-26T21:04:22;100916.81;;;-2.91;56.73
50650;BME280;36621;60.058;30.346;2023-02-26T21:11:53;100937.31;;;-2.69;56.62
50650;BME280;36621;60.058;30.346;2023-02-26T21:19:26;100928.53;;;-3.01;56.63
50650;BME280;36621;60.058;30.346;2023-02-26T21:26:58;100956.72;;;-2.90;57.09
50650;BME280;36621;60.058;30.346;2023-02-26T21:34:32;100964.59;;;-2.97;56.87
50650;BME280;36621;60.058;30.346;2023-02-26T21:42:07;100985.34;;;-2.75;56.45
50650;BME280;36621;60.058;30.346;2023-02-26T21:49:40;100995.28;;;-2.69;56.28
50650;BME280;36621;60.058;30.346;2023-02-26T21:57:11;101007.66;;;-2.68;56.98
50650;BME280;36621;60.058;30.346;2023-02-26T22:04:44;101030.72;;;-2.67;56.55
50650;BME280;36621;60.058;30.346;2023-02-26T22:12:16;101001.22;;;-2.82;56.60
50650;BME280;36621;60.058;30.346;2023-02-26T22:19:49;101052.38;;;-2.62;56.19
50650;BME280;36621;60.058;30.346;2023-02-26T22:27:21;101044.22;;;-2.92;57.16
50650;BME280;36621;60.058;30.346;2023-02-26T22:34:55;101074.34;;;-2.75;56.74
50650;BME280;36621;60.058;30.346;2023-02-26T22:42:27;101080.00;;;-3.01;57.88
50650;BME280;36621;60.058;30.346;2023-02-26T22:49:59;101097.44;;;-2.82;57.09
50650;BME280;36621;60.058;30.346;2023-02-26T22:57:31;101113.22;;;-2.64;56.12
50650;BME280;36621;60.058;30.346;2023-02-26T23:05:05;101158.19;;;-2.68;55.88
50650;BME280;36621;60.058;30.346;2023-02-26T23:12:37;101151.28;;;-2.93;56.02
50650;BME280;36621;60.058;30.346;2023-02-26T23:20:12;101157.31;;;-3.00;55.97
50650;BME280;36621;60.058;30.346;2023-02-26T23:27:45;101181.69;;;-2.94;55.75
50650;BME280;36621;60.058;30.346;2023-02-26T23:35:17;101184.38;;;-2.94;55.50
50650;BME280;36621;60.058;30.346;2023-02-26T23:42:50;101200.78;;;-3.14;55.93
50650;BME280;36621;60.058;30.346;2023-02-26T23:50:22;101216.13;;;-3.08;55.84
50650;BME280;36621;60.058;30.346;2023-02-26T23:57:54;101224.63;;;-3.04;55.40
